createdAt,value
2022-09-25T00:02:21.039Z,99632.22
2022-09-25T00:04:48.660Z,99628.50
2022-09-25T00:07:16.045Z,99625.19
2022-09-25T00:09:43.390Z,99617.63
2022-09-25T00:12:10.969Z,99615.34
2022-09-25T00:14:38.286Z,99621.22
2022-09-25T00:17:05.655Z,99621.47
2022-09-25T00:19:51.542Z,99612.81
2022-09-25T00:22:19.567Z,99612.00
2022-09-25T00:24:47.564Z,99606.69
2022-09-25T00:27:15.336Z,99606.25
2022-09-25T00:29:42.745Z,99612.41
2022-09-25T00:32:11.305Z,99604.25
2022-09-25T00:34:38.801Z,99602.19
2022-09-25T00:37:06.375Z,99604.66
2022-09-25T00:39:34.047Z,99603.00
2022-09-25T00:42:01.396Z,99598.09
2022-09-25T00:44:56.861Z,99588.63
2022-09-25T00:47:49.282Z,99591.09
2022-09-25T00:50:26.935Z,99594.97
2022-09-25T00:52:55.429Z,99601.16
2022-09-25T00:55:23.963Z,99590.66
2022-09-25T00:57:53.240Z,99586.75
2022-09-25T01:00:20.837Z,99588.41
2022-09-25T01:02:53.282Z,99584.31
2022-09-25T01:05:24.513Z,99585.72
2022-09-25T01:07:52.280Z,99595.19
2022-09-25T01:10:20.379Z,99588.41
2022-09-25T01:12:48.537Z,99585.94
2022-09-25T01:15:17.664Z,99585.75
2022-09-25T01:18:02.973Z,99569.44
2022-09-25T01:20:41.079Z,99582.41
2022-09-25T01:23:20.807Z,99580.56
2022-09-25T01:25:55.398Z,99585.31
2022-09-25T01:28:29.445Z,99589.84
2022-09-25T01:31:03.881Z,99586.12
2022-09-25T01:33:35.708Z,99585.72
2022-09-25T01:36:06.970Z,99588.41
2022-09-25T01:38:42.952Z,99585.12
2022-09-25T01:41:27.504Z,99587.97
2022-09-25T01:44:10.149Z,99583.88
2022-09-25T01:46:44.126Z,99583.28
2022-09-25T01:49:22.902Z,99585.31
2022-09-25T01:51:52.534Z,99593.28
2022-09-25T01:54:32.948Z,99583.81
2022-09-25T01:57:22.561Z,99575.63
2022-09-25T01:59:56.993Z,99572.97
2022-09-25T02:02:30.266Z,99573.34
2022-09-25T02:05:02.798Z,99570.69
2022-09-25T02:07:34.250Z,99572.13
2022-09-25T02:10:14.338Z,99570.06
2022-09-25T02:12:47.364Z,99568.84
2022-09-25T02:15:35.518Z,99569.63
2022-09-25T02:18:26.156Z,99577.62
2022-09-25T02:21:00.047Z,99575.38
2022-09-25T02:23:32.775Z,99579.94
2022-09-25T02:26:09.618Z,99583.22
2022-09-25T02:28:36.998Z,99586.91
2022-09-25T02:31:08.388Z,99579.91
2022-09-25T02:33:35.925Z,99588.16
2022-09-25T02:36:03.801Z,99587.91
2022-09-25T02:38:33.539Z,99582.16
2022-09-25T02:41:03.703Z,99581.03
2022-09-25T02:43:46.201Z,99578.84
2022-09-25T02:46:19.447Z,99581.53
2022-09-25T02:48:53.070Z,99574.84
2022-09-25T02:51:34.482Z,99589.59
2022-09-25T02:54:05.187Z,99581.03
2022-09-25T02:56:35.151Z,99576.97
2022-09-25T02:59:06.877Z,99562.56
2022-09-25T03:01:35.262Z,99562.16
2022-09-25T03:04:03.528Z,99560.13
2022-09-25T03:06:31.102Z,99566.41
2022-09-25T03:08:58.605Z,99560.72
2022-09-25T03:11:28.961Z,99562.00
2022-09-25T03:14:00.606Z,99558.50
2022-09-25T03:16:49.140Z,99554.38
2022-09-25T03:19:16.577Z,99565.41
2022-09-25T03:21:44.174Z,99553.97
2022-09-25T03:24:11.528Z,99551.13
2022-09-25T03:26:40.554Z,99550.53
2022-09-25T03:29:08.281Z,99547.94
2022-09-25T03:31:35.748Z,99550.56
2022-09-25T03:34:03.130Z,99560.38
2022-09-25T03:36:30.926Z,99554.56
2022-09-25T03:38:59.142Z,99541.03
2022-09-25T03:41:28.890Z,99545.78
2022-09-25T03:43:56.779Z,99554.38
2022-09-25T03:46:26.758Z,99562.16
2022-09-25T03:48:54.238Z,99560.78
2022-09-25T03:51:22.009Z,99567.78
2022-09-25T03:53:50.059Z,99570.03
2022-09-25T03:56:20.293Z,99574.97
2022-09-25T03:58:48.285Z,99575.63
2022-09-25T04:01:15.923Z,99571.72
2022-09-25T04:03:47.044Z,99576.59
2022-09-25T04:06:18.440Z,99575.81
2022-09-25T04:08:46.516Z,99575.38
2022-09-25T04:11:15.139Z,99575.59
2022-09-25T04:13:44.056Z,99568.81
2022-09-25T04:16:12.079Z,99572.91
2022-09-25T04:18:41.816Z,99562.19
2022-09-25T04:21:10.069Z,99564.88
2022-09-25T04:23:37.733Z,99555.38
2022-09-25T04:26:05.260Z,99551.56
2022-09-25T04:28:33.082Z,99554.62
2022-09-25T04:31:00.840Z,99556.91
2022-09-25T04:33:46.443Z,99557.28
2022-09-25T04:36:19.181Z,99558.69
2022-09-25T04:38:48.118Z,99555.41
2022-09-25T04:41:16.598Z,99549.28
2022-09-25T04:43:43.957Z,99548.88
2022-09-25T04:46:16.727Z,99556.47
2022-09-25T04:48:47.878Z,99559.37
2022-09-25T04:51:15.247Z,99558.13
2022-09-25T04:53:43.104Z,99567.59
2022-09-25T04:56:15.914Z,99567.41
2022-09-25T04:58:45.952Z,99567.63
2022-09-25T05:01:13.625Z,99569.47
2022-09-25T05:03:41.072Z,99565.94
2022-09-25T05:06:08.486Z,99566.78
2022-09-25T05:08:36.059Z,99569.88
2022-09-25T05:11:03.913Z,99567.22
2022-09-25T05:13:31.403Z,99559.97
2022-09-25T05:15:59.057Z,99562.25
2022-09-25T05:18:26.761Z,99563.06
2022-09-25T05:20:54.339Z,99557.66
2022-09-25T05:23:22.086Z,99562.84
2022-09-25T05:26:02.262Z,99566.97
2022-09-25T05:28:31.020Z,99561.81
2022-09-25T05:31:04.613Z,99564.09
2022-09-25T05:33:32.699Z,99568.00
2022-09-25T05:36:04.498Z,99569.69
2022-09-25T05:38:32.491Z,99567.19
2022-09-25T05:41:05.001Z,99572.16
2022-09-25T05:43:32.796Z,99573.38
2022-09-25T05:46:00.370Z,99576.44
2022-09-25T05:48:27.847Z,99579.50
2022-09-25T05:50:56.388Z,99576.41
2022-09-25T05:53:23.924Z,99578.03
2022-09-25T05:55:55.685Z,99569.97
2022-09-25T05:58:23.287Z,99572.69
2022-09-25T06:00:50.840Z,99577.03
2022-09-25T06:03:18.670Z,99578.84
2022-09-25T06:05:46.285Z,99582.66
2022-09-25T06:08:13.834Z,99589.00
2022-09-25T06:10:41.706Z,99585.78
2022-09-25T06:13:09.025Z,99582.50
2022-09-25T06:15:37.718Z,99594.56
2022-09-25T06:18:05.772Z,99597.53
2022-09-25T06:20:33.167Z,99596.31
2022-09-25T06:23:03.671Z,99602.88
2022-09-25T06:25:32.598Z,99599.28
2022-09-25T06:28:00.649Z,99601.75
2022-09-25T06:30:34.421Z,99593.00
2022-09-25T06:33:10.748Z,99584.72
2022-09-25T06:35:41.750Z,99588.19
2022-09-25T06:38:09.597Z,99595.22
2022-09-25T06:40:38.801Z,99595.66
2022-09-25T06:43:07.795Z,99604.25
2022-09-25T06:45:35.670Z,99604.06
2022-09-25T06:48:13.319Z,99607.13
2022-09-25T06:50:44.596Z,99601.75
2022-09-25T06:53:12.060Z,99605.63
2022-09-25T06:55:39.466Z,99599.13
2022-09-25T06:58:08.398Z,99604.37
2022-09-25T07:00:35.748Z,99597.69
2022-09-25T07:03:21.745Z,99600.59
2022-09-25T07:05:49.431Z,99603.56
2022-09-25T07:08:17.576Z,99604.31
2022-09-25T07:10:51.961Z,99594.66
2022-09-25T07:13:24.396Z,99592.78
2022-09-25T07:15:56.346Z,99593.28
2022-09-25T07:18:24.503Z,99590.19
2022-09-25T07:20:52.891Z,99588.53
2022-09-25T07:23:21.078Z,99584.25
2022-09-25T07:25:49.530Z,99584.81
2022-09-25T07:28:18.998Z,99590.84
2022-09-25T07:30:46.701Z,99583.25
2022-09-25T07:33:14.462Z,99585.41
2022-09-25T07:35:41.796Z,99578.94
2022-09-25T07:38:09.112Z,99581.78
2022-09-25T07:40:36.755Z,99575.00
2022-09-25T07:43:04.597Z,99578.19
2022-09-25T07:45:32.325Z,99561.84
2022-09-25T07:48:01.597Z,99569.38
2022-09-25T07:50:29.563Z,99562.91
2022-09-25T07:52:57.069Z,99550.38
2022-09-25T07:55:24.750Z,99549.75
2022-09-25T07:57:53.350Z,99547.06
2022-09-25T08:00:20.688Z,99541.81
2022-09-25T08:02:55.740Z,99549.97
2022-09-25T08:05:23.163Z,99542.00
2022-09-25T08:07:50.746Z,99545.88
2022-09-25T08:10:18.841Z,99541.56
2022-09-25T08:12:46.185Z,99543.34
2022-09-25T08:15:16.917Z,99547.00
2022-09-25T08:17:44.272Z,99552.63
2022-09-25T08:20:11.581Z,99548.03
2022-09-25T08:22:39.202Z,99549.19
2022-09-25T08:25:06.936Z,99554.62
2022-09-25T08:27:39.648Z,99554.62
2022-09-25T08:30:09.042Z,99564.84
2022-09-25T08:32:36.567Z,99561.09
2022-09-25T08:35:04.472Z,99564.69
2022-09-25T08:37:32.313Z,99563.41
2022-09-25T08:39:59.905Z,99576.25
2022-09-25T08:42:33.116Z,99562.94
2022-09-25T08:45:22.423Z,99569.16
2022-09-25T08:48:10.192Z,99565.16
2022-09-25T08:50:37.894Z,99558.56
2022-09-25T08:53:15.861Z,99554.62
2022-09-25T08:56:02.069Z,99559.50
2022-09-25T08:58:34.311Z,99566.19
2022-09-25T09:01:04.204Z,99557.63
2022-09-25T09:03:32.131Z,99558.37
2022-09-25T09:06:02.774Z,99563.28
2022-09-25T09:08:31.383Z,99571.34
2022-09-25T09:11:13.606Z,99563.75
2022-09-25T09:13:58.278Z,99568.78
2022-09-25T09:16:47.010Z,99577.22
2022-09-25T09:19:14.600Z,99570.66
2022-09-25T09:21:47.391Z,99567.34
2022-09-25T09:24:37.086Z,99569.97
2022-09-25T09:27:23.120Z,99581.19
2022-09-25T09:30:15.501Z,99576.72
2022-09-25T09:33:01.442Z,99575.50
2022-09-25T09:35:42.535Z,99577.34
2022-09-25T09:38:44.247Z,99578.28
2022-09-25T09:41:44.027Z,99578.44
2022-09-25T09:44:40.021Z,99575.44
2022-09-25T09:47:39.508Z,99570.47
2022-09-25T09:50:43.906Z,99567.66
2022-09-25T09:53:34.277Z,99580.66
2022-09-25T09:56:14.822Z,99567.34
2022-09-25T09:58:57.137Z,99558.53
2022-09-25T10:01:40.978Z,99563.03
2022-09-25T10:04:24.722Z,99568.50
2022-09-25T10:06:55.505Z,99568.13
2022-09-25T10:09:25.917Z,99564.56
2022-09-25T10:12:07.485Z,99563.47
2022-09-25T10:14:38.606Z,99566.75
2022-09-25T10:17:05.907Z,99572.53
2022-09-25T10:20:03.494Z,99574.81
2022-09-25T10:22:37.428Z,99575.44
2022-09-25T10:25:06.516Z,99580.97
2022-09-25T10:27:41.330Z,99584.88
2022-09-25T10:30:11.674Z,99579.75
2022-09-25T10:32:43.306Z,99572.34
2022-09-25T10:35:19.201Z,99586.00
2022-09-25T10:37:54.638Z,99576.44
2022-09-25T10:40:28.153Z,99565.16
2022-09-25T10:43:24.231Z,99571.81
2022-09-25T10:46:12.934Z,99567.37
2022-09-25T10:48:59.315Z,99557.13
2022-09-25T10:51:26.674Z,99558.06
2022-09-25T10:54:13.281Z,99547.47
2022-09-25T10:56:40.648Z,99545.47
2022-09-25T10:59:19.518Z,99549.22
2022-09-25T11:01:47.712Z,99546.03
2022-09-25T11:04:21.614Z,99540.19
2022-09-25T11:06:52.333Z,99530.47
2022-09-25T11:09:22.262Z,99526.59
2022-09-25T11:11:50.161Z,99528.53
2022-09-25T11:14:45.368Z,99532.81
2022-09-25T11:17:32.554Z,99524.56
2022-09-25T11:20:31.659Z,99537.16
2022-09-25T11:23:24.681Z,99526.84
2022-09-25T11:26:16.634Z,99534.09
2022-09-25T11:29:07.458Z,99526.59
2022-09-25T11:31:43.565Z,99534.22
2022-09-25T11:34:34.097Z,99549.38
2022-09-25T11:37:30.963Z,99547.25
2022-09-25T11:40:29.796Z,99544.13
2022-09-25T11:43:14.465Z,99549.47
2022-09-25T11:45:51.578Z,99551.72
2022-09-25T11:48:51.466Z,99543.50
2022-09-25T11:51:39.240Z,99540.38
2022-09-25T11:54:45.151Z,99538.09
2022-09-25T11:57:18.316Z,99533.84
2022-09-25T12:00:06.928Z,99538.81
2022-09-25T12:03:01.044Z,99534.56
2022-09-25T12:05:49.269Z,99533.75
2022-09-25T12:08:38.706Z,99536.53
2022-09-25T12:11:45.827Z,99533.91
2022-09-25T12:14:17.221Z,99528.63
2022-09-25T12:17:00.509Z,99534.34
2022-09-25T12:19:52.114Z,99525.97
2022-09-25T12:22:39.743Z,99527.38
2022-09-25T12:25:48.047Z,99525.34
2022-09-25T12:28:37.149Z,99529.44
2022-09-25T12:31:23.611Z,99532.38
2022-09-25T12:34:06.290Z,99524.34
2022-09-25T12:36:42.723Z,99532.84
2022-09-25T12:39:20.207Z,99522.97
2022-09-25T12:41:55.741Z,99524.34
2022-09-25T12:44:50.336Z,99518.81
2022-09-25T12:47:37.570Z,99515.19
2022-09-25T12:50:14.990Z,99516.50
2022-09-25T12:53:05.674Z,99510.34
2022-09-25T12:55:41.058Z,99516.38
2022-09-25T12:58:23.113Z,99519.38
2022-09-25T13:00:56.135Z,99512.28
2022-09-25T13:03:46.245Z,99515.91
2022-09-25T13:06:25.420Z,99516.38
2022-09-25T13:08:57.939Z,99510.72
2022-09-25T13:12:02.810Z,99505.47
2022-09-25T13:14:34.684Z,99507.25
2022-09-25T13:17:02.507Z,99503.66
2022-09-25T13:19:33.266Z,99514.59
2022-09-25T13:22:24.915Z,99514.47
2022-09-25T13:25:02.326Z,99514.88
2022-09-25T13:27:37.395Z,99513.56
2022-09-25T13:30:05.768Z,99511.22
2022-09-25T13:32:35.962Z,99509.91
2022-09-25T13:35:06.093Z,99511.47
2022-09-25T13:37:36.102Z,99513.16
2022-09-25T13:40:35.979Z,99511.72
2022-09-25T13:43:24.335Z,99513.03
2022-09-25T13:46:15.073Z,99508.47
2022-09-25T13:48:42.848Z,99506.66
2022-09-25T13:51:18.031Z,99498.19
2022-09-25T13:54:03.784Z,99505.59
2022-09-25T13:56:34.269Z,99501.62
2022-09-25T13:59:20.363Z,99501.28
2022-09-25T14:01:57.708Z,99500.16
2022-09-25T14:04:34.071Z,99504.53
2022-09-25T14:07:13.449Z,99504.38
2022-09-25T14:09:46.403Z,99498.91
2022-09-25T14:12:23.538Z,99497.31
2022-09-25T14:14:56.002Z,99495.72
2022-09-25T14:17:24.926Z,99495.56
2022-09-25T14:19:54.131Z,99494.50
2022-09-25T14:22:46.113Z,99494.44
2022-09-25T14:25:40.627Z,99496.75
2022-09-25T14:28:25.600Z,99494.25
2022-09-25T14:31:23.932Z,99488.97
2022-09-25T14:34:04.448Z,99478.78
2022-09-25T14:36:37.163Z,99479.38
2022-09-25T14:39:19.749Z,99482.09
2022-09-25T14:42:06.430Z,99484.63
2022-09-25T14:45:06.337Z,99476.00
2022-09-25T14:47:38.844Z,99478.34
2022-09-25T14:50:06.322Z,99475.72
2022-09-25T14:52:35.046Z,99480.88
2022-09-25T14:55:02.387Z,99469.88
2022-09-25T14:57:37.170Z,99477.03
2022-09-25T15:00:07.035Z,99472.41
2022-09-25T15:02:38.047Z,99475.94
2022-09-25T15:05:34.283Z,99477.13
2022-09-25T15:08:02.840Z,99467.50
2022-09-25T15:10:34.399Z,99470.69
2022-09-25T15:13:14.063Z,99473.03
2022-09-25T15:16:01.964Z,99477.47
2022-09-25T15:18:29.375Z,99473.56
2022-09-25T15:20:56.965Z,99472.03
2022-09-25T15:23:24.325Z,99469.34
2022-09-25T15:25:53.999Z,99464.91
2022-09-25T15:28:24.545Z,99461.78
2022-09-25T15:31:00.472Z,99463.25
2022-09-25T15:33:29.913Z,99460.78
2022-09-25T15:35:58.772Z,99456.62
2022-09-25T15:38:34.200Z,99460.16
2022-09-25T15:41:01.990Z,99462.66
2022-09-25T15:43:32.289Z,99457.38
2022-09-25T15:46:09.174Z,99457.84
2022-09-25T15:48:40.544Z,99456.47
2022-09-25T15:51:21.412Z,99459.84
2022-09-25T15:53:59.071Z,99446.47
2022-09-25T15:56:27.928Z,99444.50
2022-09-25T15:59:18.428Z,99445.34
2022-09-25T16:02:04.457Z,99441.50
2022-09-25T16:04:47.224Z,99439.94
2022-09-25T16:07:36.556Z,99442.63
2022-09-25T16:10:12.168Z,99447.72
2022-09-25T16:12:42.464Z,99444.44
2022-09-25T16:15:26.626Z,99448.47
2022-09-25T16:18:02.845Z,99443.63
2022-09-25T16:20:34.533Z,99432.44
2022-09-25T16:23:04.506Z,99434.41
2022-09-25T16:25:42.468Z,99438.31
2022-09-25T16:28:27.889Z,99427.41
2022-09-25T16:31:04.579Z,99419.25
2022-09-25T16:33:40.080Z,99419.13
2022-09-25T16:36:17.543Z,99425.41
2022-09-25T16:39:11.111Z,99419.66
2022-09-25T16:41:40.297Z,99420.59
2022-09-25T16:44:15.147Z,99419.34
2022-09-25T16:46:43.487Z,99416.22
2022-09-25T16:49:12.269Z,99415.94
2022-09-25T16:51:45.889Z,99406.25
2022-09-25T16:54:15.107Z,99399.41
2022-09-25T16:56:43.079Z,99395.94
2022-09-25T16:59:17.399Z,99399.09
2022-09-25T17:01:45.868Z,99390.59
2022-09-25T17:04:14.138Z,99393.94
2022-09-25T17:06:44.382Z,99376.97
2022-09-25T17:09:12.737Z,99389.88
2022-09-25T17:11:40.630Z,99392.50
2022-09-25T17:14:08.589Z,99388.53
2022-09-25T17:16:36.226Z,99383.34
2022-09-25T17:19:08.440Z,99372.25
2022-09-25T17:21:36.025Z,99379.94
2022-09-25T17:24:03.406Z,99380.34
2022-09-25T17:26:30.857Z,99374.97
2022-09-25T17:28:58.493Z,99374.69
2022-09-25T17:31:25.985Z,99370.91
2022-09-25T17:33:53.369Z,99370.56
2022-09-25T17:36:21.096Z,99373.25
2022-09-25T17:38:48.453Z,99372.50
2022-09-25T17:41:18.224Z,99369.28
2022-09-25T17:43:45.906Z,99366.94
2022-09-25T17:46:16.163Z,99363.31
2022-09-25T17:48:43.754Z,99369.00
2022-09-25T17:51:18.013Z,99362.56
2022-09-25T17:53:46.476Z,99364.38
2022-09-25T17:56:14.045Z,99355.69
2022-09-25T17:58:43.230Z,99363.53
2022-09-25T18:01:24.609Z,99357.81
2022-09-25T18:03:53.432Z,99357.12
2022-09-25T18:06:20.767Z,99359.63
2022-09-25T18:08:48.424Z,99372.09
2022-09-25T18:11:16.196Z,99370.88
2022-09-25T18:13:43.944Z,99372.50
2022-09-25T18:16:22.054Z,99362.31
2022-09-25T18:19:08.520Z,99364.91
2022-09-25T18:21:54.215Z,99363.31
2022-09-25T18:24:21.850Z,99368.31
2022-09-25T18:26:50.197Z,99364.16
2022-09-25T18:29:18.192Z,99372.47
2022-09-25T18:31:46.549Z,99360.91
2022-09-25T18:34:14.667Z,99369.16
2022-09-25T18:36:42.359Z,99360.75
2022-09-25T18:39:10.040Z,99359.63
2022-09-25T18:41:37.908Z,99364.72
2022-09-25T18:44:08.732Z,99371.66
2022-09-25T18:46:38.254Z,99375.63
2022-09-25T18:49:06.403Z,99380.09
2022-09-25T18:51:33.869Z,99369.03
2022-09-25T18:54:01.727Z,99365.16
2022-09-25T18:56:29.838Z,99366.56
2022-09-25T18:58:57.159Z,99374.34
2022-09-25T19:01:25.204Z,99369.56
2022-09-25T19:03:53.676Z,99366.13
2022-09-25T19:06:21.138Z,99358.44
2022-09-25T19:08:56.752Z,99360.31
2022-09-25T19:11:24.755Z,99359.81
2022-09-25T19:13:52.918Z,99364.50
2022-09-25T19:16:20.568Z,99351.44
2022-09-25T19:18:50.390Z,99349.78
2022-09-25T19:21:21.192Z,99348.34
2022-09-25T19:23:50.468Z,99336.78
2022-09-25T19:26:20.940Z,99341.94
2022-09-25T19:28:48.390Z,99344.06
2022-09-25T19:31:17.735Z,99338.87
2022-09-25T19:33:45.450Z,99336.72
2022-09-25T19:36:26.613Z,99339.88
2022-09-25T19:38:55.216Z,99333.78
2022-09-25T19:41:30.556Z,99331.84
2022-09-25T19:43:59.446Z,99339.72
2022-09-25T19:46:28.798Z,99345.03
2022-09-25T19:48:56.156Z,99346.94
2022-09-25T19:51:24.221Z,99349.72
2022-09-25T19:53:51.961Z,99346.28
2022-09-25T19:56:19.637Z,99349.81
2022-09-25T19:58:49.624Z,99335.25
2022-09-25T20:01:19.001Z,99336.91
2022-09-25T20:03:46.593Z,99334.31
2022-09-25T20:06:16.034Z,99328.97
2022-09-25T20:08:43.628Z,99336.00
2022-09-25T20:11:22.024Z,99330.75
2022-09-25T20:13:50.803Z,99329.94
2022-09-25T20:16:19.933Z,99330.81
2022-09-25T20:18:50.740Z,99328.59
2022-09-25T20:21:21.234Z,99341.16
2022-09-25T20:23:52.604Z,99334.84
2022-09-25T20:26:20.651Z,99341.78
2022-09-25T20:28:52.666Z,99337.91
2022-09-25T20:31:20.517Z,99337.47
2022-09-25T20:33:47.938Z,99338.69
2022-09-25T20:36:15.613Z,99342.59
2022-09-25T20:38:43.298Z,99329.97
2022-09-25T20:41:11.757Z,99341.19
2022-09-25T20:43:39.463Z,99337.87
2022-09-25T20:46:09.244Z,99336.00
2022-09-25T20:48:37.890Z,99323.16
2022-09-25T20:51:09.673Z,99317.44
2022-09-25T20:53:37.597Z,99310.78
2022-09-25T20:56:12.517Z,99310.97
2022-09-25T20:58:41.106Z,99313.91
2022-09-25T21:01:10.174Z,99318.66
2022-09-25T21:03:38.588Z,99317.25
2022-09-25T21:06:08.134Z,99322.09
2022-09-25T21:08:35.637Z,99325.41
2022-09-25T21:11:03.030Z,99316.66
2022-09-25T21:13:31.709Z,99311.44
2022-09-25T21:16:06.251Z,99309.75
2022-09-25T21:18:35.694Z,99303.59
2022-09-25T21:21:04.414Z,99301.19
2022-09-25T21:23:31.873Z,99298.72
2022-09-25T21:26:04.438Z,99294.41
2022-09-25T21:28:32.487Z,99288.47
2022-09-25T21:31:13.929Z,99280.81
2022-09-25T21:33:41.391Z,99284.22
2022-09-25T21:36:10.026Z,99280.09
2022-09-25T21:38:37.372Z,99273.38
2022-09-25T21:41:06.620Z,99272.03
2022-09-25T21:43:38.298Z,99270.28
2022-09-25T21:46:16.451Z,99258.34
2022-09-25T21:48:48.825Z,99264.94
2022-09-25T21:51:16.326Z,99273.84
2022-09-25T21:53:44.074Z,99262.66
2022-09-25T21:56:14.340Z,99262.97
2022-09-25T21:58:41.725Z,99267.63
2022-09-25T22:01:12.294Z,99270.91
2022-09-25T22:03:41.484Z,99264.44
2022-09-25T22:06:10.893Z,99260.69
2022-09-25T22:08:41.250Z,99254.75
2022-09-25T22:11:09.098Z,99250.06
2022-09-25T22:13:37.356Z,99251.84
2022-09-25T22:16:10.907Z,99257.69
2022-09-25T22:18:43.324Z,99246.59
2022-09-25T22:21:11.860Z,99239.84
2022-09-25T22:23:39.431Z,99243.50
2022-09-25T22:26:06.795Z,99238.03
2022-09-25T22:28:34.818Z,99246.72
2022-09-25T22:31:12.514Z,99243.19
2022-09-25T22:33:40.023Z,99235.66
2022-09-25T22:36:08.312Z,99241.03
2022-09-25T22:38:35.684Z,99239.22
2022-09-25T22:41:07.784Z,99230.50
2022-09-25T22:43:35.574Z,99235.25
2022-09-25T22:46:03.164Z,99242.41
2022-09-25T22:48:30.730Z,99236.00
2022-09-25T22:51:03.792Z,99226.97
2022-09-25T22:53:32.103Z,99223.94
2022-09-25T22:56:21.065Z,99220.84
2022-09-25T22:58:49.955Z,99218.31
2022-09-25T23:01:23.224Z,99218.72
2022-09-25T23:03:57.702Z,99216.41
2022-09-25T23:06:25.980Z,99202.31
2022-09-25T23:08:54.242Z,99209.78
2022-09-25T23:11:22.002Z,99209.00
2022-09-25T23:13:59.801Z,99200.06
2022-09-25T23:16:27.475Z,99202.34
2022-09-25T23:18:58.258Z,99183.41
2022-09-25T23:21:26.033Z,99179.91
2022-09-25T23:23:57.154Z,99180.56
2022-09-25T23:26:24.760Z,99185.19
2022-09-25T23:28:52.136Z,99186.09
2022-09-25T23:31:19.709Z,99176.91
2022-09-25T23:33:47.418Z,99176.72
2022-09-25T23:36:17.591Z,99180.53
2022-09-25T23:38:45.013Z,99171.97
2022-09-25T23:41:20.072Z,99173.09
2022-09-25T23:43:47.930Z,99174.50
2022-09-25T23:46:16.083Z,99171.81
2022-09-25T23:48:43.594Z,99171.81
2022-09-25T23:51:11.354Z,99161.44
2022-09-25T23:53:40.450Z,99168.22
2022-09-25T23:56:09.502Z,99156.50
2022-09-25T23:58:36.832Z,99153.38
